Time;durP1;ratioP1;P1;durP2;ratioP2;P2;SDS_P1;SDS_P2;PMS_P1;PMS_P2;Temp;Humidity;BMP_temperature;BMP_pressure;BME280_temperature;BME280_humidity;BME280_pressure;Samples;Min_cycle;Max_cycle;Signal;HPM_P1;HPM_P2
2020/12/16 00:02:23;;;;;;;4.00;2.85;;;24.00;39.90;;;;;;5035118;28;20025;-48
2020/12/16 00:04:50;;;;;;;3.58;2.85;;;23.90;39.80;;;;;;5036346;28;20032;-47
2020/12/16 00:07:17;;;;;;;3.70;2.97;;;23.90;39.80;;;;;;5034833;28;20026;-50
2020/12/16 00:09:44;;;;;;;3.10;2.80;;;23.90;39.80;;;;;;5036159;28;20330;-46
2020/12/16 00:12:12;;;;;;;5.57;3.10;;;23.90;40.50;;;;;;5035156;28;20379;-48
2020/12/16 00:14:38;;;;;;;4.50;3.30;;;23.90;39.80;;;;;;5035563;28;20241;-51
2020/12/16 00:17:05;;;;;;;4.00;2.80;;;23.90;39.90;;;;;;5035680;28;20037;-54
2020/12/16 00:19:32;;;;;;;4.28;2.65;;;23.80;39.80;;;;;;5035749;28;20045;-48
2020/12/16 00:22:00;;;;;;;4.53;3.08;;;23.80;39.80;;;;;;5033558;28;20044;-50
2020/12/16 00:24:27;;;;;;;3.42;2.95;;;23.90;39.90;;;;;;5036093;28;20025;-52
2020/12/16 00:26:54;;;;;;;4.72;3.28;;;23.80;39.80;;;;;;5035172;28;20048;-47
2020/12/16 00:29:21;;;;;;;4.22;2.97;;;23.80;39.80;;;;;;5034966;28;20033;-47
2020/12/16 00:31:48;;;;;;;3.90;2.70;;;23.80;39.80;;;;;;5034787;28;20488;-51
2020/12/16 00:34:15;;;;;;;3.88;2.92;;;23.80;39.80;;;;;;5035315;28;20056;-49
2020/12/16 00:36:42;;;;;;;5.45;2.70;;;23.80;39.80;;;;;;5035007;28;20108;-50
2020/12/16 00:39:11;;;;;;;3.38;2.85;;;23.80;39.80;;;;;;5034876;28;20132;-53
2020/12/16 00:41:38;;;;;;;3.38;2.75;;;23.80;39.80;;;;;;5034826;28;20036;-48
2020/12/16 00:44:06;;;;;;;3.92;2.92;;;23.70;39.80;;;;;;5034353;28;20061;-52
2020/12/16 00:46:34;;;;;;;3.25;2.88;;;23.70;39.80;;;;;;5016934;28;20368;-48
2020/12/16 00:49:00;;;;;;;3.00;2.53;;;23.70;39.80;;;;;;5034809;28;20029;-48
2020/12/16 00:51:27;;;;;;;3.88;3.13;;;23.70;39.80;;;;;;5034713;28;20041;-54
2020/12/16 00:53:53;;;;;;;3.67;2.90;;;23.70;39.90;;;;;;5017020;28;20041;-49
2020/12/16 00:56:20;;;;;;;3.55;3.05;;;23.60;39.70;;;;;;5016931;28;20053;-52
2020/12/16 00:58:46;;;;;;;4.32;2.83;;;23.60;39.70;;;;;;5017382;28;20033;-51
2020/12/16 01:01:13;;;;;;;4.30;2.70;;;23.70;39.80;;;;;;5033673;28;20444;-49
2020/12/16 01:03:40;;;;;;;5.00;2.85;;;23.70;39.90;;;;;;5017136;28;20051;-48
2020/12/16 01:06:07;;;;;;;3.70;2.75;;;23.70;39.90;;;;;;5017021;28;20037;-50
2020/12/16 01:08:37;;;;;;;5.18;2.72;;;23.70;39.90;;;;;;5016814;28;20037;-48
2020/12/16 01:11:04;;;;;;;3.13;2.60;;;23.60;39.90;;;;;;5034954;28;20033;-50
2020/12/16 01:13:32;;;;;;;4.32;2.78;;;23.60;39.90;;;;;;5016211;28;20033;-53
2020/12/16 01:15:59;;;;;;;3.38;2.75;;;23.60;39.90;;;;;;5016392;28;20108;-50
2020/12/16 01:18:26;;;;;;;4.05;2.88;;;23.60;39.90;;;;;;5016818;28;20408;-54
2020/12/16 01:20:58;;;;;;;3.53;2.80;;;23.60;39.90;;;;;;5016837;28;20041;-53
2020/12/16 01:23:34;;;;;;;3.92;2.67;;;23.60;39.90;;;;;;5016437;28;20030;-54
2020/12/16 01:26:00;;;;;;;4.18;2.78;;;23.50;39.90;;;;;;5016689;28;20041;-55
2020/12/16 01:28:30;;;;;;;3.70;3.08;;;23.50;39.90;;;;;;5016628;28;20444;-55
2020/12/16 02:59:06;;;;;;;3.10;2.50;;;23.10;40.20;;;;;;5021349;28;20084;-53
2020/12/16 03:01:39;;;;;;;2.60;2.40;;;23.10;40.30;;;;;;5034532;28;20029;-49
2020/12/16 03:04:25;;;;;;;2.95;2.20;;;23.10;40.30;;;;;;5034639;28;20045;-51
2020/12/16 03:07:11;;;;;;;3.83;2.10;;;23.10;40.30;;;;;;5019561;28;20048;-48
2020/12/16 03:09:39;;;;;;;2.63;2.30;;;23.10;40.30;;;;;;5018908;28;20029;-51
2020/12/16 03:12:05;;;;;;;3.08;2.08;;;23.10;40.30;;;;;;5018460;28;20041;-48
2020/12/16 03:14:45;;;;;;;2.65;2.17;;;23.10;40.20;;;;;;5019007;28;20061;-52
2020/12/16 03:17:12;;;;;;;5.65;2.20;;;23.10;40.20;;;;;;5019156;28;20029;-47
2020/12/16 03:19:43;;;;;;;2.83;2.35;;;23.10;40.20;;;;;;5019103;28;20025;-50
2020/12/16 03:22:10;;;;;;;4.95;2.70;;;23.10;40.10;;;;;;5018976;28;20057;-48
2020/12/16 03:24:53;;;;;;;2.92;2.25;;;23.10;40.10;;;;;;5019026;28;20071;-49
2020/12/16 03:27:34;;;;;;;2.70;2.40;;;23.10;40.10;;;;;;5019205;28;20448;-49
2020/12/16 03:30:19;;;;;;;3.40;2.60;;;23.10;40.10;;;;;;5036697;28;20122;-47
2020/12/16 03:33:14;;;;;;;;;;;23.10;40.10;;;;;;5019250;28;20092;-51
2020/12/16 03:35:55;;;;;;;2.53;2.28;;;23.10;40.10;;;;;;5019171;28;19909;-53
2020/12/16 03:38:22;;;;;;;2.30;2.10;;;23.00;40.10;;;;;;5018645;28;20410;-52
2020/12/16 03:40:52;;;;;;;2.50;2.15;;;23.10;40.20;;;;;;5018064;28;20045;-50
2020/12/16 03:43:20;;;;;;;2.55;1.90;;;23.00;40.10;;;;;;5018601;28;20087;-48
2020/12/16 03:45:47;;;;;;;2.95;2.28;;;23.00;40.10;;;;;;5019017;28;20472;-48
2020/12/16 03:48:13;;;;;;;2.15;1.95;;;23.00;40.00;;;;;;5018815;28;20029;-48
2020/12/16 03:50:41;;;;;;;5.22;2.42;;;23.10;40.10;;;;;;5018126;28;20183;-47
2020/12/16 03:53:07;;;;;;;2.83;2.50;;;23.00;40.10;;;;;;5035880;28;20040;-49
2020/12/16 03:55:53;;;;;;;2.22;2.00;;;23.00;40.10;;;;;;5018771;28;20033;-50
2020/12/16 03:58:45;;;;;;;2.80;2.45;;;23.00;40.10;;;;;;4991384;28;20387;-51
2020/12/16 04:01:22;;;;;;;2.67;2.00;;;23.00;40.10;;;;;;5018742;28;20079;-53
2020/12/16 04:03:51;;;;;;;2.15;1.80;;;23.00;40.20;;;;;;5018103;28;20076;-50
2020/12/16 04:06:33;;;;;;;2.15;1.92;;;23.00;40.40;;;;;;5017673;28;20035;-53
2020/12/16 04:09:04;;;;;;;2.45;2.25;;;23.00;40.10;;;;;;5017806;28;20029;-50
2020/12/16 04:11:45;;;;;;;2.90;2.10;;;23.00;40.10;;;;;;5035994;28;20338;-52
2020/12/16 04:14:22;;;;;;;2.20;2.00;;;23.00;40.20;;;;;;4998601;28;20026;-48
2020/12/16 04:16:48;;;;;;;2.55;2.00;;;23.00;40.20;;;;;;4998973;28;20026;-48
2020/12/16 04:19:16;;;;;;;2.50;1.80;;;23.00;40.20;;;;;;5022891;28;20026;-52
2020/12/16 04:21:47;;;;;;;2.03;1.77;;;22.90;40.10;;;;;;4998522;28;20025;-49
2020/12/16 04:24:18;;;;;;;2.38;1.90;;;22.90;40.10;;;;;;5017782;28;20092;-49
2020/12/16 04:26:52;;;;;;;2.08;1.83;;;22.90;40.10;;;;;;5017694;28;20025;-53
2020/12/16 04:29:19;;;;;;;2.40;2.05;;;22.90;40.10;;;;;;5017336;28;20033;-53
2020/12/16 04:31:51;;;;;;;2.22;2.03;;;22.90;40.10;;;;;;5017867;28;20056;-53
2020/12/16 04:34:22;;;;;;;2.13;1.70;;;22.90;40.10;;;;;;5017795;28;20499;-51
2020/12/16 04:36:50;;;;;;;2.38;1.90;;;22.90;40.10;;;;;;5017751;28;20033;-53
2020/12/16 04:39:19;;;;;;;2.70;2.10;;;22.90;40.10;;;;;;5017453;28;20028;-50
2020/12/16 04:41:51;;;;;;;2.53;2.05;;;22.90;40.10;;;;;;5017739;28;20025;-51
2020/12/16 04:44:17;;;;;;;2.20;2.00;;;22.90;40.10;;;;;;5017750;28;20393;-50
2020/12/16 04:46:51;;;;;;;2.10;1.90;;;22.90;40.20;;;;;;5017027;28;20524;-49
2020/12/16 04:49:27;;;;;;;1.75;1.65;;;22.90;40.10;;;;;;5016952;28;20037;-50
2020/12/16 04:51:55;;;;;;;2.20;1.80;;;22.90;40.40;;;;;;5017019;28;20041;-51
2020/12/16 04:54:43;;;;;;;2.35;1.88;;;22.90;40.10;;;;;;5017681;28;20424;-51
2020/12/16 04:57:10;;;;;;;2.10;1.90;;;22.90;40.20;;;;;;5016979;28;20120;-49
2020/12/16 04:59:41;;;;;;;2.17;1.70;;;22.90;40.10;;;;;;5004059;28;20468;-51
2020/12/16 05:02:18;;;;;;;2.95;1.90;;;22.80;40.10;;;;;;4997440;28;20329;-51
2020/12/16 05:05:10;;;;;;;2.78;1.70;;;22.80;40.10;;;;;;5012636;28;20050;-48
2020/12/16 05:07:37;;;;;;;1.85;1.67;;;22.80;40.20;;;;;;5014243;28;20036;-51
2020/12/16 05:10:04;;;;;;;2.25;1.65;;;22.80;40.10;;;;;;5014334;28;20076;-49
2020/12/16 05:12:30;;;;;;;2.65;1.98;;;22.80;40.10;;;;;;5014620;28;20034;-50
2020/12/16 05:14:57;;;;;;;2.28;1.75;;;22.80;40.10;;;;;;5015257;28;20032;-52
2020/12/16 05:17:24;;;;;;;2.00;1.80;;;22.80;40.10;;;;;;5014728;28;20065;-48
2020/12/16 05:20:08;;;;;;;2.22;1.73;;;22.80;40.10;;;;;;4996886;28;20099;-52
2020/12/16 05:22:35;;;;;;;1.80;1.67;;;22.80;40.10;;;;;;5014530;28;20057;-50
2020/12/16 05:25:02;;;;;;;1.85;1.55;;;22.80;40.10;;;;;;5015126;28;20029;-49
2020/12/16 05:27:33;;;;;;;2.50;1.77;;;22.80;40.10;;;;;;4997307;28;20337;-52
2020/12/16 05:30:01;;;;;;;2.08;1.80;;;22.80;40.00;;;;;;5014465;28;20043;-48
2020/12/16 05:32:30;;;;;;;2.05;1.60;;;22.80;40.00;;;;;;5014050;28;20038;-53
2020/12/16 05:34:59;;;;;;;1.63;1.52;;;22.80;40.00;;;;;;5014597;28;20036;-53
2020/12/16 05:37:32;;;;;;;2.60;1.90;;;22.80;40.10;;;;;;5014883;28;20022;-50
2020/12/16 05:40:11;;;;;;;1.80;1.42;;;22.70;40.00;;;;;;5014276;28;20029;-51
2020/12/16 05:42:39;;;;;;;2.40;1.80;;;22.80;40.10;;;;;;5013822;28;20060;-50
2020/12/16 05:45:17;;;;;;;2.55;1.73;;;22.70;40.10;;;;;;5014774;28;20033;-53
2020/12/16 05:48:16;;;;;;;3.28;1.73;;;22.70;40.70;;;;;;5014394;28;20334;-51
2020/12/16 05:50:51;;;;;;;2.00;1.65;;;22.80;40.10;;;;;;4971195;28;20672;-50
2020/12/16 05:53:26;;;;;;;2.13;1.50;;;22.70;40.10;;;;;;5013711;28;20384;-46
2020/12/16 05:55:58;;;;;;;2.30;1.95;;;22.70;40.10;;;;;;5014668;28;20038;-54
2020/12/16 05:58:30;;;;;;;2.30;1.77;;;22.70;40.10;;;;;;5016734;28;20018;-50
2020/12/16 06:01:07;;;;;;;1.60;1.50;;;22.70;40.10;;;;;;5033996;28;20037;-54
2020/12/16 06:03:35;;;;;;;2.20;1.73;;;22.70;40.10;;;;;;5033859;28;20041;-48
2020/12/16 06:06:07;;;;;;;2.00;1.73;;;22.70;40.10;;;;;;5034011;28;20044;-49
2020/12/16 06:08:44;;;;;;;1.88;1.60;;;22.70;40.10;;;;;;5033876;28;20092;-51
2020/12/16 06:11:12;;;;;;;1.80;1.60;;;22.70;40.10;;;;;;5032802;28;20380;-51
2020/12/16 06:13:44;;;;;;;2.00;1.50;;;22.60;40.10;;;;;;5033458;28;20036;-53
2020/12/16 06:16:11;;;;;;;1.63;1.48;;;22.70;40.10;;;;;;5033776;28;20036;-48
2020/12/16 06:18:41;;;;;;;1.48;1.35;;;22.70;40.10;;;;;;5033807;28;20029;-54
2020/12/16 06:21:10;;;;;;;2.08;1.48;;;22.60;40.10;;;;;;5019761;28;20064;-51
2020/12/16 06:23:39;;;;;;;2.05;1.65;;;22.60;40.10;;;;;;5037305;28;20056;-49
2020/12/16 06:26:09;;;;;;;1.67;1.58;;;22.60;40.00;;;;;;5018343;28;20109;-51
2020/12/16 06:28:36;;;;;;;2.08;1.48;;;22.70;40.00;;;;;;5024324;28;20033;-51
2020/12/16 06:31:25;;;;;;;2.08;1.52;;;22.60;40.00;;;;;;5037757;28;20345;-46
2020/12/16 06:33:55;;;;;;;1.92;1.50;;;22.60;40.10;;;;;;5037193;28;20356;-49
2020/12/16 06:36:30;;;;;;;1.70;1.40;;;22.60;40.20;;;;;;5019982;28;20040;-51
2020/12/16 06:38:57;;;;;;;2.40;1.33;;;22.60;40.10;;;;;;5036907;28;20052;-49
2020/12/16 06:41:32;;;;;;;1.70;1.30;;;22.60;40.10;;;;;;5037298;28;20443;-52
2020/12/16 06:44:09;;;;;;;2.08;1.50;;;22.60;40.10;;;;;;5037481;28;20026;-49
2020/12/16 06:46:40;;;;;;;2.40;1.58;;;22.60;40.10;;;;;;5037399;28;20029;-48
2020/12/16 06:49:25;;;;;;;1.92;1.48;;;22.60;40.10;;;;;;5015733;28;20033;-48
2020/12/16 06:51:53;;;;;;;2.55;1.50;;;22.60;40.10;;;;;;5037182;28;20033;-47
2020/12/16 06:54:22;;;;;;;2.92;1.52;;;22.60;40.10;;;;;;5032892;28;20026;-46
2020/12/16 06:56:51;;;;;;;3.92;1.65;;;22.60;40.00;;;;;;5030887;28;20099;-48
2020/12/16 06:59:45;;;;;;;3.03;1.60;;;22.60;40.10;;;;;;5034906;28;20053;-47
2020/12/16 07:02:22;;;;;;;3.42;1.70;;;22.60;40.10;;;;;;5035129;28;20029;-47
2020/12/16 07:04:49;;;;;;;4.50;1.90;;;22.60;40.10;;;;;;5037915;28;20116;-48
2020/12/16 07:07:42;;;;;;;3.13;2.03;;;22.60;40.10;;;;;;5036788;28;20322;-48
2020/12/16 07:10:33;;;;;;;5.22;2.03;;;22.60;40.10;;;;;;5037353;28;20037;-44
2020/12/16 07:13:18;;;;;;;3.78;2.05;;;22.60;40.20;;;;;;5036867;28;20520;-47
2020/12/16 07:16:09;;;;;;;5.20;2.17;;;22.60;40.10;;;;;;5036339;28;20037;-48
2020/12/16 07:18:45;;;;;;;5.45;2.60;;;22.60;40.10;;;;;;5036128;28;20456;-47
2020/12/16 07:21:14;;;;;;;3.75;2.10;;;22.60;40.10;;;;;;5032344;28;20048;-53
2020/12/16 07:23:45;;;;;;;2.70;1.85;;;22.60;40.10;;;;;;5017680;28;20053;-47
2020/12/16 07:26:25;;;;;;;3.88;1.85;;;22.60;40.00;;;;;;5022302;28;20025;-48
2020/12/16 07:28:53;;;;;;;4.30;1.85;;;22.60;40.00;;;;;;5036158;28;20076;-49
2020/12/16 07:31:19;;;;;;;4.53;1.80;;;22.60;40.00;;;;;;5035756;28;20113;-52
2020/12/16 07:33:46;;;;;;;4.75;2.10;;;22.50;39.90;;;;;;5036987;28;20029;-47
2020/12/16 07:36:16;;;;;;;6.75;2.15;;;22.50;39.90;;;;;;5035753;28;20064;-48
2020/12/16 07:38:53;;;;;;;6.18;2.42;;;22.50;39.80;;;;;;5036422;28;20033;-52
2020/12/16 07:41:27;;;;;;;3.75;2.08;;;22.60;39.90;;;;;;5032518;28;20029;-52
2020/12/16 07:43:54;;;;;;;;;;;22.60;39.80;;;;;;5037139;28;20318;-50
2020/12/16 07:46:22;;;;;;;3.88;2.15;;;22.50;39.80;;;;;;5036514;28;19963;-51
2020/12/16 07:48:49;;;;;;;4.63;2.13;;;22.50;39.80;;;;;;5033431;28;20030;-47
2020/12/16 07:51:19;;;;;;;4.47;2.00;;;22.50;39.80;;;;;;5035471;28;20044;-49
2020/12/16 07:53:49;;;;;;;7.05;2.78;;;22.50;39.80;;;;;;5036390;28;20021;-50
2020/12/16 07:56:18;;;;;;;3.55;2.20;;;22.50;39.90;;;;;;5034191;28;20117;-50
2020/12/16 07:58:46;;;;;;;5.13;2.10;;;22.50;39.80;;;;;;5035964;28;20049;-48
2020/12/16 08:01:19;;;;;;;4.03;2.00;;;22.50;39.70;;;;;;5034805;28;20104;-51
2020/12/16 08:03:46;;;;;;;4.90;2.17;;;22.50;39.80;;;;;;5017296;28;20421;-54
2020/12/16 08:06:14;;;;;;;6.43;2.50;;;22.50;40.10;;;;;;5032111;28;20056;-57
2020/12/16 08:08:53;;;;;;;5.10;2.60;;;22.50;40.30;;;;;;5043519;28;20083;-57
2020/12/16 08:11:25;;;;;;;6.25;2.47;;;22.50;40.40;;;;;;5035975;28;20326;-55
2020/12/16 08:14:02;;;;;;;5.75;2.40;;;22.50;40.50;;;;;;5048314;28;20357;-52
2020/12/16 08:16:34;;;;;;;4.97;2.45;;;22.60;40.70;;;;;;5041308;28;20075;-57
2020/12/16 08:19:02;;;;;;;7.03;2.40;;;22.60;40.60;;;;;;5036294;28;20340;-53
2020/12/16 08:21:35;;;;;;;4.72;2.45;;;22.60;40.60;;;;;;5016430;28;20025;-57
2020/12/16 08:24:01;;;;;;;6.95;2.63;;;22.60;40.50;;;;;;5029706;28;20029;-52
2020/12/16 08:26:28;;;;;;;6.22;2.60;;;22.70;40.50;;;;;;5034579;28;20365;-54
2020/12/16 08:28:55;;;;;;;5.93;2.45;;;22.70;40.40;;;;;;5017453;28;20195;-56
2020/12/16 08:31:29;;;;;;;4.00;2.20;;;22.80;40.30;;;;;;5016863;28;20481;-56
2020/12/16 08:33:59;;;;;;;8.25;2.40;;;22.80;40.20;;;;;;5044865;28;20033;-55
2020/12/16 08:36:27;;;;;;;8.07;2.30;;;22.90;40.20;;;;;;5035432;28;20041;-54
2020/12/16 08:39:08;;;;;;;4.15;2.30;;;22.90;40.10;;;;;;5034054;28;20026;-57
2020/12/16 08:41:36;;;;;;;5.93;2.38;;;22.90;40.00;;;;;;5032797;28;20400;-57
2020/12/16 08:44:03;;;;;;;5.47;2.28;;;23.00;40.00;;;;;;5033615;28;20084;-56
2020/12/16 08:46:29;;;;;;;5.57;2.20;;;23.00;39.90;;;;;;5035200;28;20025;-56
2020/12/16 08:49:04;;;;;;;4.75;2.10;;;23.00;39.90;;;;;;5035122;28;20025;-58
2020/12/16 08:51:42;;;;;;;5.03;2.20;;;23.00;39.80;;;;;;5015902;28;20357;-54
2020/12/16 08:54:27;;;;;;;5.78;2.42;;;23.00;39.80;;;;;;5028793;28;20040;-51
2020/12/16 08:56:58;;;;;;;4.70;2.08;;;23.00;39.80;;;;;;5024378;28;20103;-53
2020/12/16 08:59:29;;;;;;;4.72;2.35;;;23.00;39.70;;;;;;5026764;28;20060;-51
2020/12/16 09:02:08;;;;;;;4.68;2.50;;;23.00;39.60;;;;;;5027756;28;20041;-50
2020/12/16 09:04:40;;;;;;;4.75;2.42;;;23.10;39.50;;;;;;5030972;28;20404;-52
2020/12/16 09:07:09;;;;;;;4.10;1.95;;;23.10;39.40;;;;;;5026164;28;20026;-51
2020/12/16 09:09:40;;;;;;;4.07;2.30;;;23.00;39.40;;;;;;5007499;28;20029;-51
2020/12/16 09:12:15;;;;;;;4.00;2.15;;;23.10;39.30;;;;;;5029056;28;20037;-49
2020/12/16 09:14:59;;;;;;;5.53;2.50;;;23.00;39.30;;;;;;5022883;28;20034;-51
2020/12/16 09:17:27;;;;;;;3.85;2.20;;;23.00;39.20;;;;;;5025428;28;20037;-49
2020/12/16 09:19:54;;;;;;;4.18;2.20;;;23.00;39.20;;;;;;5022013;28;20025;-49
2020/12/16 09:22:29;;;;;;;3.47;2.10;;;23.10;39.20;;;;;;5021747;28;20033;-51
2020/12/16 09:24:58;;;;;;;4.70;2.53;;;23.10;39.20;;;;;;5026342;28;20029;-51
2020/12/16 09:27:24;;;;;;;3.67;2.15;;;23.10;39.20;;;;;;5024051;28;20038;-52
2020/12/16 09:29:51;;;;;;;5.50;2.30;;;23.00;39.10;;;;;;5024277;28;20381;-49
2020/12/16 09:32:19;;;;;;;4.90;2.30;;;23.00;39.00;;;;;;5023441;28;20468;-50
2020/12/16 09:34:48;;;;;;;5.55;2.08;;;23.00;39.00;;;;;;5027391;28;20033;-53
2020/12/16 09:37:24;;;;;;;5.60;2.30;;;23.00;39.00;;;;;;5026170;28;20025;-50
2020/12/16 09:40:04;;;;;;;3.28;2.00;;;23.00;39.00;;;;;;5026490;28;20332;-49
2020/12/16 09:42:30;;;;;;;2.90;1.75;;;23.10;39.10;;;;;;5022084;28;20108;-52
2020/12/16 09:45:12;;;;;;;3.88;2.13;;;23.10;39.10;;;;;;5029770;28;20086;-49
2020/12/16 09:47:47;;;;;;;3.85;2.00;;;23.20;39.10;;;;;;5026288;28;20032;-52
2020/12/16 09:50:13;;;;;;;3.80;2.10;;;23.20;39.00;;;;;;5023901;28;20037;-50
2020/12/16 09:52:41;;;;;;;5.32;2.03;;;23.20;39.00;;;;;;5023000;28;20045;-50
2020/12/16 09:55:16;;;;;;;3.70;1.90;;;23.30;39.00;;;;;;5022581;28;20488;-50
2020/12/16 09:58:15;;;;;;;3.90;1.80;;;23.30;38.90;;;;;;5024652;28;20415;-49
2020/12/16 10:00:42;;;;;;;3.83;1.80;;;23.30;38.80;;;;;;5022681;28;20063;-49
2020/12/16 10:03:10;;;;;;;3.10;2.20;;;23.40;38.80;;;;;;5026876;28;20043;-49
2020/12/16 10:05:39;;;;;;;4.45;1.88;;;23.40;38.70;;;;;;5021994;28;20091;-51
2020/12/16 10:08:12;;;;;;;3.20;1.60;;;23.50;38.60;;;;;;5027866;28;20044;-52
2020/12/16 10:10:39;;;;;;;3.88;1.80;;;23.50;38.50;;;;;;5024537;28;20033;-51
2020/12/16 10:13:06;;;;;;;3.40;1.58;;;23.50;39.00;;;;;;5023575;28;20061;-47
2020/12/16 10:15:33;;;;;;;3.33;1.80;;;23.50;38.30;;;;;;5023135;28;20036;-47
2020/12/16 10:18:00;;;;;;;3.60;1.60;;;23.60;38.30;;;;;;5002947;28;20507;-49
2020/12/16 10:20:27;;;;;;;2.92;1.63;;;23.60;38.20;;;;;;5005718;28;20473;-54
2020/12/16 10:23:02;;;;;;;3.75;2.10;;;23.70;38.10;;;;;;5016074;28;21769;-53
2020/12/16 10:25:31;;;;;;;2.83;1.85;;;23.70;38.00;;;;;;5025650;28;20116;-55
2020/12/16 10:27:59;;;;;;;2.58;1.58;;;23.70;37.90;;;;;;5019391;28;20378;-48
2020/12/16 10:30:27;;;;;;;3.33;1.50;;;23.80;38.50;;;;;;5025925;28;20037;-50
2020/12/16 10:32:54;;;;;;;4.53;1.92;;;23.80;37.80;;;;;;5027531;28;20042;-50
2020/12/16 10:35:23;;;;;;;2.53;1.38;;;23.80;37.70;;;;;;5008714;28;20127;-52
2020/12/16 10:37:49;;;;;;;2.35;1.55;;;23.80;37.70;;;;;;5021908;28;20029;-50
2020/12/16 10:40:16;;;;;;;2.42;1.60;;;23.80;37.70;;;;;;5029527;28;20044;-49
2020/12/16 10:42:43;;;;;;;2.42;1.50;;;23.80;37.70;;;;;;5030304;28;20076;-49
2020/12/16 10:45:10;;;;;;;2.95;1.38;;;23.80;37.70;;;;;;5030891;28;20021;-53
2020/12/16 10:47:36;;;;;;;3.17;1.40;;;23.80;37.70;;;;;;5022491;28;20021;-54
2020/12/16 10:50:04;;;;;;;2.72;1.50;;;23.80;37.70;;;;;;5022518;28;20025;-51
2020/12/16 10:52:30;;;;;;;3.85;1.52;;;23.80;37.70;;;;;;5021915;28;20514;-52
2020/12/16 10:54:56;;;;;;;3.13;1.65;;;23.80;37.70;;;;;;5024424;28;20037;-56
2020/12/16 10:57:23;;;;;;;2.75;1.30;;;23.80;37.70;;;;;;5023905;28;20451;-55
2020/12/16 10:59:50;;;;;;;2.63;1.45;;;23.80;37.60;;;;;;5024222;28;20050;-54
2020/12/16 11:02:17;;;;;;;3.60;1.55;;;23.80;37.70;;;;;;5027822;28;20026;-55
2020/12/16 11:04:44;;;;;;;1.75;1.40;;;23.80;37.60;;;;;;5022008;28;20029;-53
2020/12/16 11:07:11;;;;;;;2.70;1.30;;;23.70;37.60;;;;;;5029077;28;20112;-57
2020/12/16 11:09:38;;;;;;;1.98;1.20;;;23.70;37.70;;;;;;5028955;28;20333;-56
2020/12/16 11:12:05;;;;;;;2.42;1.50;;;23.80;37.80;;;;;;5027431;28;20044;-55
2020/12/16 11:14:32;;;;;;;2.45;1.40;;;23.70;37.80;;;;;;5025321;28;20033;-56
2020/12/16 11:17:00;;;;;;;4.30;1.48;;;23.80;37.80;;;;;;5026807;28;20445;-52
2020/12/16 11:19:26;;;;;;;2.67;1.42;;;23.70;37.90;;;;;;5027931;28;20039;-53
2020/12/16 11:21:53;;;;;;;3.70;1.50;;;23.70;37.90;;;;;;5030151;28;20322;-54
2020/12/16 11:24:22;;;;;;;5.47;1.60;;;23.80;38.10;;;;;;5027779;28;20017;-50
2020/12/16 11:26:51;;;;;;;2.13;1.25;;;23.70;38.20;;;;;;5030485;28;20229;-54
2020/12/16 11:29:21;;;;;;;3.00;1.50;;;23.70;38.30;;;;;;5035187;28;20057;-51
2020/12/16 11:31:54;;;;;;;1.85;1.25;;;23.80;38.40;;;;;;5035447;28;20334;-56
2020/12/16 11:34:26;;;;;;;3.92;1.50;;;23.70;38.40;;;;;;5034476;28;20038;-53
2020/12/16 11:36:56;;;;;;;2.13;1.00;;;23.80;38.40;;;;;;5036099;28;20029;-54
2020/12/16 11:39:25;;;;;;;2.22;1.30;;;23.70;38.30;;;;;;5035273;28;20459;-54
2020/12/16 11:42:09;;;;;;;1.92;1.15;;;23.70;38.20;;;;;;5000639;28;20410;-51
2020/12/16 11:44:36;;;;;;;2.00;1.10;;;23.60;38.10;;;;;;5034391;28;20364;-57
2020/12/16 11:47:06;;;;;;;1.63;1.20;;;23.70;38.20;;;;;;5017673;28;20025;-54
2020/12/16 11:49:33;;;;;;;1.50;1.02;;;23.70;38.10;;;;;;5036553;28;20485;-55
2020/12/16 11:52:00;;;;;;;2.78;1.30;;;23.60;38.10;;;;;;5033595;28;20130;-53
2020/12/16 11:54:26;;;;;;;2.13;1.10;;;23.60;38.10;;;;;;5034225;28;20044;-49
2020/12/16 11:56:53;;;;;;;1.77;1.10;;;23.60;38.00;;;;;;5017474;28;20400;-55
2020/12/16 11:59:19;;;;;;;2.65;1.10;;;23.60;38.00;;;;;;5035914;28;20057;-55
2020/12/16 12:01:46;;;;;;;2.58;1.00;;;23.60;38.00;;;;;;5034428;28;20365;-53
2020/12/16 12:04:12;;;;;;;2.88;1.35;;;23.60;38.00;;;;;;5036078;28;20095;-53
2020/12/16 12:06:39;;;;;;;1.45;1.00;;;23.60;37.90;;;;;;5034470;28;20017;-54
2020/12/16 12:09:08;;;;;;;1.45;0.98;;;23.60;37.90;;;;;;5034713;28;20346;-53
2020/12/16 12:11:35;;;;;;;1.38;0.80;;;23.50;37.90;;;;;;5034484;28;20043;-54
2020/12/16 12:14:03;;;;;;;1.45;1.00;;;23.60;37.90;;;;;;5036036;28;20033;-50
2020/12/16 12:16:31;;;;;;;1.95;1.40;;;23.50;37.90;;;;;;5033698;28;20034;-54
2020/12/16 12:18:59;;;;;;;1.75;1.00;;;23.50;37.80;;;;;;5034210;28;20018;-53
2020/12/16 12:21:26;;;;;;;1.83;1.00;;;23.50;37.80;;;;;;5018315;28;20041;-53
2020/12/16 12:23:54;;;;;;;1.13;0.90;;;23.50;37.80;;;;;;5035061;28;20046;-51
2020/12/16 12:26:20;;;;;;;2.63;1.40;;;23.50;37.80;;;;;;5035182;28;20032;-53
2020/12/16 12:28:47;;;;;;;2.15;0.90;;;23.50;37.80;;;;;;5034847;28;20087;-49
2020/12/16 12:31:13;;;;;;;2.17;0.93;;;23.50;37.80;;;;;;5032596;28;20033;-50
2020/12/16 12:33:40;;;;;;;1.60;1.00;;;23.50;37.80;;;;;;5033525;28;20124;-50
2020/12/16 12:36:08;;;;;;;2.70;0.90;;;23.50;37.80;;;;;;5034651;28;20022;-51
2020/12/16 12:38:35;;;;;;;1.40;0.93;;;23.50;37.80;;;;;;5017125;28;20036;-51
2020/12/16 12:41:02;;;;;;;1.33;0.90;;;23.50;37.70;;;;;;5031352;28;20112;-49
2020/12/16 12:43:29;;;;;;;2.03;1.00;;;23.50;37.70;;;;;;5034637;28;20056;-50
2020/12/16 12:45:55;;;;;;;1.38;0.90;;;23.50;37.70;;;;;;5034239;28;20029;-53
2020/12/16 12:48:23;;;;;;;1.42;0.90;;;23.50;37.70;;;;;;5033401;28;20109;-54
2020/12/16 12:50:50;;;;;;;1.75;1.10;;;23.50;37.70;;;;;;5034588;28;20025;-52
2020/12/16 12:53:17;;;;;;;1.50;0.90;;;23.50;37.70;;;;;;5035083;28;20056;-52
2020/12/16 12:55:44;;;;;;;1.48;0.80;;;23.50;37.70;;;;;;5033721;28;20074;-47
2020/12/16 12:58:12;;;;;;;1.58;0.60;;;23.50;37.70;;;;;;5034485;28;20033;-55
2020/12/16 13:00:39;;;;;;;1.95;0.80;;;23.40;37.60;;;;;;5016418;28;20144;-49
2020/12/16 13:03:06;;;;;;;1.23;0.70;;;23.50;37.60;;;;;;5035225;28;20341;-47
2020/12/16 13:05:32;;;;;;;1.25;0.80;;;23.50;37.60;;;;;;5032821;28;20313;-49
2020/12/16 13:07:59;;;;;;;0.90;0.70;;;23.50;38.30;;;;;;5014795;28;20041;-51
2020/12/16 13:10:26;;;;;;;1.38;0.98;;;23.50;37.60;;;;;;5016641;28;20334;-51
2020/12/16 13:12:53;;;;;;;1.00;0.80;;;23.50;37.60;;;;;;5035134;28;20037;-52
2020/12/16 13:15:20;;;;;;;0.98;0.80;;;23.50;37.60;;;;;;5033350;28;20017;-50
2020/12/16 13:17:47;;;;;;;1.23;0.90;;;23.50;37.60;;;;;;5017846;28;20452;-52
2020/12/16 13:20:14;;;;;;;0.93;0.70;;;23.50;37.60;;;;;;5032586;28;20033;-54
2020/12/16 13:22:41;;;;;;;1.00;0.70;;;23.40;37.50;;;;;;5031453;28;20324;-53
2020/12/16 13:25:09;;;;;;;1.23;0.98;;;23.50;37.60;;;;;;5033404;28;20021;-52
2020/12/16 13:27:37;;;;;;;0.70;0.65;;;23.40;37.50;;;;;;5033605;28;20025;-52
2020/12/16 13:30:07;;;;;;;1.35;0.77;;;23.40;37.50;;;;;;5034112;28;20037;-50
2020/12/16 13:32:35;;;;;;;1.00;0.70;;;23.50;37.60;;;;;;5032102;28;20080;-53
2020/12/16 13:35:02;;;;;;;0.82;0.68;;;23.40;37.50;;;;;;5030638;28;20108;-48
2020/12/16 13:37:29;;;;;;;0.98;0.68;;;23.40;37.50;;;;;;5032615;28;20030;-50
2020/12/16 13:39:55;;;;;;;1.45;0.80;;;23.40;37.50;;;;;;5014696;28;20029;-47
2020/12/16 13:42:22;;;;;;;1.05;0.70;;;23.40;37.50;;;;;;5026923;28;20033;-50
2020/12/16 13:44:49;;;;;;;1.17;0.88;;;23.40;37.50;;;;;;5034390;28;20033;-53
2020/12/16 13:47:16;;;;;;;1.42;0.80;;;23.40;37.50;;;;;;5031284;28;20449;-52
2020/12/16 13:49:44;;;;;;;0.65;0.60;;;23.40;37.50;;;;;;5033212;28;20035;-49
2020/12/16 13:52:14;;;;;;;0.73;0.63;;;23.40;37.50;;;;;;5032483;28;20049;-50
2020/12/16 13:54:42;;;;;;;0.80;0.80;;;23.40;37.50;;;;;;5033187;28;20029;-48
2020/12/16 13:57:10;;;;;;;1.23;0.85;;;23.40;37.50;;;;;;5016185;28;20057;-50
2020/12/16 13:59:38;;;;;;;1.52;1.05;;;23.40;37.50;;;;;;5034008;28;20049;-48
2020/12/16 14:02:06;;;;;;;1.40;0.77;;;23.40;37.50;;;;;;5033087;28;20033;-52
2020/12/16 14:04:34;;;;;;;1.08;0.90;;;23.40;37.50;;;;;;5032762;28;20133;-52
2020/12/16 14:07:01;;;;;;;1.38;0.80;;;23.40;37.50;;;;;;5032747;28;20135;-52
2020/12/16 14:09:29;;;;;;;1.20;0.90;;;23.40;37.50;;;;;;5033247;28;20345;-53
2020/12/16 14:11:55;;;;;;;0.73;0.60;;;23.30;37.50;;;;;;5034129;28;20033;-53
2020/12/16 14:14:23;;;;;;;0.93;0.65;;;23.40;37.50;;;;;;5015954;28;20533;-50
2020/12/16 14:16:52;;;;;;;1.83;0.90;;;23.40;37.50;;;;;;5032987;28;20457;-51
2020/12/16 14:19:19;;;;;;;1.55;0.82;;;23.40;37.50;;;;;;5033009;28;20506;-52
2020/12/16 14:21:45;;;;;;;1.00;0.80;;;23.40;37.50;;;;;;5032645;28;20473;-53
2020/12/16 14:24:12;;;;;;;1.15;0.73;;;23.30;38.00;;;;;;5032511;28;20029;-51
2020/12/16 14:26:39;;;;;;;1.00;0.60;;;23.30;37.50;;;;;;5033291;28;20029;-50
2020/12/16 14:29:06;;;;;;;0.98;0.80;;;23.30;37.50;;;;;;5033062;28;20030;-53
2020/12/16 14:31:33;;;;;;;1.13;0.77;;;23.30;37.50;;;;;;5032388;28;20029;-49
2020/12/16 14:33:59;;;;;;;1.40;0.73;;;23.30;37.50;;;;;;5032241;28;20463;-51